sensor_id;sensor_type;location;lat;lon;timestamp;pressure;altitude;pressure_sealevel;temperature;humidity
46718;BME280;32448;44.960;-0.698;2022-10-31T00:00:08;101499.84;;;15.08;100.00
46718;BME280;32448;44.960;-0.698;2022-10-31T00:02:38;101495.44;;;15.09;100.00
46718;BME280;32448;44.960;-0.698;2022-10-31T00:05:06;101492.81;;;15.09;100.00
46718;BME280;32448;44.960;-0.698;2022-10-31T00:07:34;101492.78;;;15.06;100.00
46718;BME280;32448;44.960;-0.698;2022-10-31T00:10:01;101492.78;;;15.06;100.00
46718;BME280;32448;44.960;-0.698;2022-10-31T00:12:28;101492.78;;;15.06;100.00
46718;BME280;32448;44.960;-0.698;2022-10-31T00:14:57;101478.63;;;14.96;100.00
46718;BME280;32448;44.960;-0.698;2022-10-31T00:17:24;101475.16;;;14.97;100.00
46718;BME280;32448;44.960;-0.698;2022-10-31T00:19:52;101480.41;;;14.97;100.00
46718;BME280;32448;44.960;-0.698;2022-10-31T00:22:19;101468.06;;;14.93;100.00
46718;BME280;32448;44.960;-0.698;2022-10-31T00:24:46;101451.34;;;14.86;100.00
46718;BME280;32448;44.960;-0.698;2022-10-31T00:27:13;101442.50;;;14.81;100.00
46718;BME280;32448;44.960;-0.698;2022-10-31T00:29:40;101426.66;;;14.75;100.00
46718;BME280;32448;44.960;-0.698;2022-10-31T00:32:07;101466.22;;;14.84;100.00
46718;BME280;32448;44.960;-0.698;2022-10-31T00:34:34;101470.69;;;14.90;100.00
46718;BME280;32448;44.960;-0.698;2022-10-31T00:37:01;101475.91;;;14.87;100.00
46718;BME280;32448;44.960;-0.698;2022-10-31T00:39:29;101468.84;;;14.83;100.00
46718;BME280;32448;44.960;-0.698;2022-10-31T00:41:56;101468.88;;;14.86;100.00
46718;BME280;32448;44.960;-0.698;2022-10-31T00:44:23;101454.78;;;14.79;100.00
46718;BME280;32448;44.960;-0.698;2022-10-31T00:46:51;101477.69;;;14.88;100.00
46718;BME280;32448;44.960;-0.698;2022-10-31T00:49:20;101470.66;;;14.87;100.00
46718;BME280;32448;44.960;-0.698;2022-10-31T00:51:48;101481.22;;;14.93;100.00
46718;BME280;32448;44.960;-0.698;2022-10-31T00:54:15;101482.97;;;14.89;100.00
46718;BME280;32448;44.960;-0.698;2022-10-31T00:56:43;101511.19;;;15.01;100.00
46718;BME280;32448;44.960;-0.698;2022-10-31T00:59:10;101480.31;;;14.88;100.00
46718;BME280;32448;44.960;-0.698;2022-10-31T01:01:37;101500.69;;;15.07;100.00
46718;BME280;32448;44.960;-0.698;2022-10-31T01:04:05;101491.03;;;15.08;100.00
46718;BME280;32448;44.960;-0.698;2022-10-31T01:06:32;101492.88;;;15.15;100.00
46718;BME280;32448;44.960;-0.698;2022-10-31T01:08:59;101494.63;;;15.16;100.00
46718;BME280;32448;44.960;-0.698;2022-10-31T01:11:26;101478.81;;;15.11;100.00
46718;BME280;32448;44.960;-0.698;2022-10-31T01:13:54;101475.38;;;15.20;100.00
46718;BME280;32448;44.960;-0.698;2022-10-31T01:16:23;101456.78;;;15.05;100.00
46718;BME280;32448;44.960;-0.698;2022-10-31T01:18:51;101475.38;;;15.24;100.00
46718;BME280;32448;44.960;-0.698;2022-10-31T01:21:24;101464.94;;;15.30;100.00
46718;BME280;32448;44.960;-0.698;2022-10-31T01:23:55;101421.84;;;15.22;100.00
46718;BME280;32448;44.960;-0.698;2022-10-31T01:26:25;101437.78;;;15.41;100.00
46718;BME280;32448;44.960;-0.698;2022-10-31T01:29:00;101437.75;;;15.38;100.00
46718;BME280;32448;44.960;-0.698;2022-10-31T01:31:30;101449.19;;;15.38;100.00
46718;BME280;32448;44.960;-0.698;2022-10-31T01:33:58;101450.94;;;15.38;100.00
46718;BME280;32448;44.960;-0.698;2022-10-31T01:36:26;101443.03;;;15.38;100.00
46718;BME280;32448;44.960;-0.698;2022-10-31T01:38:57;101443.91;;;15.38;100.00
46718;BME280;32448;44.960;-0.698;2022-10-31T01:41:28;101460.59;;;15.37;100.00
46718;BME280;32448;44.960;-0.698;2022-10-31T01:46:40;101419.38;;;15.47;100.00
46718;BME280;32448;44.960;-0.698;2022-10-31T01:49:17;101393.00;;;15.39;100.00
46718;BME280;32448;44.960;-0.698;2022-10-31T01:52:00;101422.00;;;15.42;100.00
46718;BME280;32448;44.960;-0.698;2022-10-31T01:54:32;101404.41;;;15.35;100.00
46718;BME280;32448;44.960;-0.698;2022-10-31T01:57:02;101388.56;;;15.34;100.00
46718;BME280;32448;44.960;-0.698;2022-10-31T01:59:34;101374.50;;;15.30;100.00
46718;BME280;32448;44.960;-0.698;2022-10-31T02:02:02;101369.25;;;15.33;100.00
46718;BME280;32448;44.960;-0.698;2022-10-31T02:04:29;101370.13;;;15.37;100.00
46718;BME280;32448;44.960;-0.698;2022-10-31T02:07:10;101347.25;;;15.23;100.00
46718;BME280;32448;44.960;-0.698;2022-10-31T02:09:39;101378.91;;;15.36;100.00
46718;BME280;32448;44.960;-0.698;2022-10-31T02:12:09;101361.44;;;15.50;100.00
46718;BME280;32448;44.960;-0.698;2022-10-31T02:14:37;101355.25;;;15.42;100.00
46718;BME280;32448;44.960;-0.698;2022-10-31T02:17:06;101346.44;;;15.35;100.00
46718;BME280;32448;44.960;-0.698;2022-10-31T02:20:04;101353.44;;;15.32;100.00
46718;BME280;32448;44.960;-0.698;2022-10-31T02:25:56;101315.56;;;15.11;100.00
46718;BME280;32448;44.960;-0.698;2022-10-31T02:33:52;101312.91;;;15.11;100.00
46718;BME280;32448;44.960;-0.698;2022-10-31T02:39:22;101319.03;;;15.09;100.00
46718;BME280;32448;44.960;-0.698;2022-10-31T02:42:22;101331.28;;;15.04;100.00
46718;BME280;32448;44.960;-0.698;2022-10-31T02:45:07;101326.88;;;15.00;100.00
46718;BME280;32448;44.960;-0.698;2022-10-31T02:47:37;101296.00;;;14.80;100.00
46718;BME280;32448;44.960;-0.698;2022-10-31T02:52:43;101307.44;;;14.84;100.00
46718;BME280;32448;44.960;-0.698;2022-10-31T03:00:29;101295.91;;;14.67;100.00
46718;BME280;32448;44.960;-0.698;2022-10-31T03:03:21;101323.19;;;14.79;100.00
46718;BME280;32448;44.960;-0.698;2022-10-31T03:06:12;101307.34;;;14.73;100.00
46718;BME280;32448;44.960;-0.698;2022-10-31T03:11:24;101301.13;;;14.65;100.00
46718;BME280;32448;44.960;-0.698;2022-10-31T03:14:09;101294.06;;;14.61;100.00
46718;BME280;32448;44.960;-0.698;2022-10-31T03:16:50;101285.28;;;14.56;100.00
46718;BME280;32448;44.960;-0.698;2022-10-31T03:19:41;101286.16;;;14.55;100.00
46718;BME280;32448;44.960;-0.698;2022-10-31T03:22:16;101276.44;;;14.51;100.00
46718;BME280;32448;44.960;-0.698;2022-10-31T03:24:46;101260.59;;;14.42;100.00
46718;BME280;32448;44.960;-0.698;2022-10-31T03:27:19;101270.25;;;14.44;100.00
46718;BME280;32448;44.960;-0.698;2022-10-31T03:29:50;101280.66;;;14.37;100.00
46718;BME280;32448;44.960;-0.698;2022-10-31T03:32:34;101287.69;;;14.35;100.00
46718;BME280;32448;44.960;-0.698;2022-10-31T03:35:05;101282.41;;;14.33;100.00
46718;BME280;32448;44.960;-0.698;2022-10-31T03:37:35;101284.09;;;14.30;100.00
46718;BME280;32448;44.960;-0.698;2022-10-31T03:40:06;101281.44;;;14.27;100.00
46718;BME280;32448;44.960;-0.698;2022-10-31T03:42:40;101273.44;;;14.16;100.00
46718;BME280;32448;44.960;-0.698;2022-10-31T03:45:19;101272.53;;;14.14;100.00
46718;BME280;32448;44.960;-0.698;2022-10-31T03:47:48;101273.44;;;14.13;100.00
46718;BME280;32448;44.960;-0.698;2022-10-31T03:50:16;101261.16;;;14.12;100.00
46718;BME280;32448;44.960;-0.698;2022-10-31T03:52:58;101262.03;;;14.12;100.00
46718;BME280;32448;44.960;-0.698;2022-10-31T03:58:57;101263.66;;;14.01;100.00
46718;BME280;32448;44.960;-0.698;2022-10-31T04:01:27;101252.19;;;13.95;100.00
46718;BME280;32448;44.960;-0.698;2022-10-31T04:03:58;101232.75;;;13.79;100.00
46718;BME280;32448;44.960;-0.698;2022-10-31T04:06:26;101249.63;;;13.99;100.00
46718;BME280;32448;44.960;-0.698;2022-10-31T04:08:58;101217.91;;;13.84;100.00
46718;BME280;32448;44.960;-0.698;2022-10-31T04:11:31;101233.75;;;13.90;100.00
46718;BME280;32448;44.960;-0.698;2022-10-31T04:14:24;101250.34;;;13.86;100.00
46718;BME280;32448;44.960;-0.698;2022-10-31T04:16:53;101238.91;;;13.79;100.00
46718;BME280;32448;44.960;-0.698;2022-10-31T04:19:27;101254.69;;;13.84;100.00
46718;BME280;32448;44.960;-0.698;2022-10-31T04:21:54;101250.25;;;13.77;100.00
46718;BME280;32448;44.960;-0.698;2022-10-31T04:24:21;101245.84;;;13.74;100.00
46718;BME280;32448;44.960;-0.698;2022-10-31T04:26:49;101219.41;;;13.61;100.00
46718;BME280;32448;44.960;-0.698;2022-10-31T04:29:18;101230.84;;;13.64;100.00
46718;BME280;32448;44.960;-0.698;2022-10-31T04:31:46;101240.50;;;13.70;100.00
46718;BME280;32448;44.960;-0.698;2022-10-31T04:34:13;101234.41;;;13.71;100.00
46718;BME280;32448;44.960;-0.698;2022-10-31T04:36:41;101226.41;;;13.60;100.00
46718;BME280;32448;44.960;-0.698;2022-10-31T04:39:08;101237.91;;;13.68;100.00
46718;BME280;32448;44.960;-0.698;2022-10-31T04:41:44;101231.66;;;13.62;100.00
46718;BME280;32448;44.960;-0.698;2022-10-31T04:44:15;101221.88;;;13.48;100.00
46718;BME280;32448;44.960;-0.698;2022-10-31T04:46:44;101236.91;;;13.60;100.00
46718;BME280;32448;44.960;-0.698;2022-10-31T04:49:12;101226.38;;;13.59;100.00
46718;BME280;32448;44.960;-0.698;2022-10-31T04:51:39;101213.22;;;13.56;100.00
46718;BME280;32448;44.960;-0.698;2022-10-31T04:54:07;101213.19;;;13.53;100.00
46718;BME280;32448;44.960;-0.698;2022-10-31T04:56:53;101214.88;;;13.49;100.00
46718;BME280;32448;44.960;-0.698;2022-10-31T04:59:22;101205.25;;;13.49;100.00
46718;BME280;32448;44.960;-0.698;2022-10-31T05:01:51;101193.84;;;13.44;100.00
46718;BME280;32448;44.960;-0.698;2022-10-31T05:04:33;101193.84;;;13.44;100.00
46718;BME280;32448;44.960;-0.698;2022-10-31T05:07:01;101193.88;;;13.46;100.00
46718;BME280;32448;44.960;-0.698;2022-10-31T05:09:29;101194.75;;;13.46;100.00
46718;BME280;32448;44.960;-0.698;2022-10-31T05:11:57;101186.84;;;13.45;100.00
46718;BME280;32448;44.960;-0.698;2022-10-31T05:14:43;101192.94;;;13.44;100.00
46718;BME280;32448;44.960;-0.698;2022-10-31T05:17:33;101194.66;;;13.40;100.00
46718;BME280;32448;44.960;-0.698;2022-10-31T05:20:32;101195.53;;;13.41;100.00
46718;BME280;32448;44.960;-0.698;2022-10-31T05:23:08;101187.56;;;13.33;100.00
46718;BME280;32448;44.960;-0.698;2022-10-31T05:25:41;101176.97;;;13.24;100.00
46718;BME280;32448;44.960;-0.698;2022-10-31T05:28:08;101189.28;;;13.30;100.00
46718;BME280;32448;44.960;-0.698;2022-10-31T05:30:36;101189.25;;;13.28;100.00
46718;BME280;32448;44.960;-0.698;2022-10-31T05:33:08;101194.59;;;13.34;100.00
46718;BME280;32448;44.960;-0.698;2022-10-31T05:36:02;101178.69;;;13.22;100.00
46718;BME280;32448;44.960;-0.698;2022-10-31T05:38:35;101177.91;;;13.31;100.00
46718;BME280;32448;44.960;-0.698;2022-10-31T05:41:11;101170.84;;;13.24;100.00
46718;BME280;32448;44.960;-0.698;2022-10-31T05:43:42;101174.41;;;13.30;100.00
46718;BME280;32448;44.960;-0.698;2022-10-31T05:46:09;101170.88;;;13.30;100.00
46718;BME280;32448;44.960;-0.698;2022-10-31T05:48:55;101148.78;;;13.12;100.00
46718;BME280;32448;44.960;-0.698;2022-10-31T05:51:46;101165.53;;;13.21;100.00
46718;BME280;32448;44.960;-0.698;2022-10-31T05:54:14;101143.47;;;13.08;100.00
46718;BME280;32448;44.960;-0.698;2022-10-31T05:56:44;101139.16;;;13.13;100.00
46718;BME280;32448;44.960;-0.698;2022-10-31T05:59:11;101163.84;;;13.24;100.00
46718;BME280;32448;44.960;-0.698;2022-10-31T06:01:39;101150.84;;;13.38;100.00
46718;BME280;32448;44.960;-0.698;2022-10-31T06:04:21;101150.91;;;13.42;100.00
46718;BME280;32448;44.960;-0.698;2022-10-31T06:06:48;101146.47;;;13.37;100.00
46718;BME280;32448;44.960;-0.698;2022-10-31T06:09:17;101158.72;;;13.35;100.00
46718;BME280;32448;44.960;-0.698;2022-10-31T06:11:44;101155.19;;;13.33;100.00
46718;BME280;32448;44.960;-0.698;2022-10-31T06:14:24;101135.03;;;13.30;100.00
46718;BME280;32448;44.960;-0.698;2022-10-31T06:16:56;101140.31;;;13.33;100.00
46718;BME280;32448;44.960;-0.698;2022-10-31T06:19:41;101142.03;;;13.31;100.00
46718;BME280;32448;44.960;-0.698;2022-10-31T06:22:11;101144.66;;;13.31;100.00
46718;BME280;32448;44.960;-0.698;2022-10-31T06:24:38;101107.75;;;13.18;100.00
46718;BME280;32448;44.960;-0.698;2022-10-31T06:27:32;101142.09;;;13.37;100.00
46718;BME280;32448;44.960;-0.698;2022-10-31T06:30:05;101146.47;;;13.38;100.00
46718;BME280;32448;44.960;-0.698;2022-10-31T06:32:35;101134.16;;;13.31;100.00
46718;BME280;32448;44.960;-0.698;2022-10-31T06:35:02;101135.94;;;13.32;100.00
46718;BME280;32448;44.960;-0.698;2022-10-31T06:37:32;101125.56;;;13.44;100.00
46718;BME280;32448;44.960;-0.698;2022-10-31T06:40:07;101131.72;;;13.46;100.00
46718;BME280;32448;44.960;-0.698;2022-10-31T06:43:01;101132.75;;;13.62;100.00
46718;BME280;32448;44.960;-0.698;2022-10-31T06:45:30;101123.84;;;13.49;100.00
46718;BME280;32448;44.960;-0.698;2022-10-31T06:48:23;101131.69;;;13.45;100.00
46718;BME280;32448;44.960;-0.698;2022-10-31T06:51:15;101107.97;;;13.36;100.00
46718;BME280;32448;44.960;-0.698;2022-10-31T06:53:42;101125.63;;;13.51;100.00
46718;BME280;32448;44.960;-0.698;2022-10-31T06:56:11;101117.72;;;13.47;100.00
46718;BME280;32448;44.960;-0.698;2022-10-31T06:58:51;101127.34;;;13.48;100.00
46718;BME280;32448;44.960;-0.698;2022-10-31T07:01:31;101134.53;;;13.65;100.00
46718;BME280;32448;44.960;-0.698;2022-10-31T07:04:00;101103.72;;;13.47;100.00
46718;BME280;32448;44.960;-0.698;2022-10-31T07:06:31;101125.69;;;13.57;100.00
46718;BME280;32448;44.960;-0.698;2022-10-31T07:08:58;101085.16;;;13.32;100.00
46718;BME280;32448;44.960;-0.698;2022-10-31T07:11:25;101102.78;;;13.43;100.00
46718;BME280;32448;44.960;-0.698;2022-10-31T07:13:54;101106.56;;;13.68;100.00
46718;BME280;32448;44.960;-0.698;2022-10-31T07:16:22;101098.56;;;13.56;100.00
46718;BME280;32448;44.960;-0.698;2022-10-31T07:18:50;101124.91;;;13.67;100.00
46718;BME280;32448;44.960;-0.698;2022-10-31T07:21:17;101135.47;;;13.71;100.00
46718;BME280;32448;44.960;-0.698;2022-10-31T07:23:47;101128.44;;;13.69;100.00
46718;BME280;32448;44.960;-0.698;2022-10-31T07:26:41;101137.22;;;13.69;100.00
46718;BME280;32448;44.960;-0.698;2022-10-31T07:29:09;101132.03;;;13.77;100.00
46718;BME280;32448;44.960;-0.698;2022-10-31T07:31:37;101125.97;;;13.85;100.00
46718;BME280;32448;44.960;-0.698;2022-10-31T07:34:11;101122.47;;;13.85;100.00
46718;BME280;32448;44.960;-0.698;2022-10-31T07:36:57;101130.34;;;13.87;100.00
46718;BME280;32448;44.960;-0.698;2022-10-31T07:39:24;101129.44;;;13.83;100.00
46718;BME280;32448;44.960;-0.698;2022-10-31T07:41:51;101113.63;;;13.75;100.00
46718;BME280;32448;44.960;-0.698;2022-10-31T07:44:18;101123.41;;;13.92;100.00
46718;BME280;32448;44.960;-0.698;2022-10-31T07:47:06;101116.34;;;13.88;100.00
46718;BME280;32448;44.960;-0.698;2022-10-31T07:49:51;101122.56;;;13.96;100.00
46718;BME280;32448;44.960;-0.698;2022-10-31T07:52:37;101127.91;;;14.06;100.00
46718;BME280;32448;44.960;-0.698;2022-10-31T07:55:23;101122.59;;;14.00;100.00
46718;BME280;32448;44.960;-0.698;2022-10-31T07:58:00;101142.97;;;14.24;100.00
46718;BME280;32448;44.960;-0.698;2022-10-31T08:00:28;101140.38;;;14.32;100.00
46718;BME280;32448;44.960;-0.698;2022-10-31T08:03:00;101133.38;;;14.32;100.00
46718;BME280;32448;44.960;-0.698;2022-10-31T08:05:47;101144.06;;;14.52;100.00
46718;BME280;32448;44.960;-0.698;2022-10-31T08:08:26;101134.44;;;14.58;100.00
46718;BME280;32448;44.960;-0.698;2022-10-31T08:11:01;101138.03;;;14.68;100.00
46718;BME280;32448;44.960;-0.698;2022-10-31T08:13:29;101135.41;;;14.68;100.00
46718;BME280;32448;44.960;-0.698;2022-10-31T08:15:57;101136.31;;;14.73;100.00
46718;BME280;32448;44.960;-0.698;2022-10-31T08:18:33;101133.72;;;14.79;100.00
46718;BME280;32448;44.960;-0.698;2022-10-31T08:21:01;101137.31;;;14.98;100.00
46718;BME280;32448;44.960;-0.698;2022-10-31T08:23:29;101132.13;;;15.10;100.00
46718;BME280;32448;44.960;-0.698;2022-10-31T08:25:57;101127.69;;;15.06;100.00
46718;BME280;32448;44.960;-0.698;2022-10-31T08:28:24;101134.75;;;15.10;100.00
46718;BME280;32448;44.960;-0.698;2022-10-31T08:30:53;101118.94;;;15.09;100.00
46718;BME280;32448;44.960;-0.698;2022-10-31T08:33:39;101111.97;;;15.26;100.00
46718;BME280;32448;44.960;-0.698;2022-10-31T08:36:27;101103.19;;;15.28;100.00
46718;BME280;32448;44.960;-0.698;2022-10-31T08:39:11;101119.06;;;15.51;100.00
46718;BME280;32448;44.960;-0.698;2022-10-31T08:41:38;101114.72;;;15.61;100.00
46718;BME280;32448;44.960;-0.698;2022-10-31T08:44:09;101095.41;;;15.56;100.00
46718;BME280;32448;44.960;-0.698;2022-10-31T08:46:37;101060.22;;;15.48;100.00
46718;BME280;32448;44.960;-0.698;2022-10-31T08:49:04;101103.31;;;15.82;100.00
46718;BME280;32448;44.960;-0.698;2022-10-31T08:51:32;101086.63;;;15.74;100.00
46718;BME280;32448;44.960;-0.698;2022-10-31T08:54:00;101077.84;;;15.81;100.00
46718;BME280;32448;44.960;-0.698;2022-10-31T08:56:32;101087.53;;;15.86;100.00
46718;BME280;32448;44.960;-0.698;2022-10-31T08:59:02;101090.16;;;15.88;100.00
46718;BME280;32448;44.960;-0.698;2022-10-31T09:01:41;101086.66;;;15.99;100.00
46718;BME280;32448;44.960;-0.698;2022-10-31T09:04:08;101056.75;;;15.81;100.00
46718;BME280;32448;44.960;-0.698;2022-10-31T09:06:35;101064.69;;;15.94;100.00
46718;BME280;32448;44.960;-0.698;2022-10-31T09:09:03;101082.28;;;16.00;100.00
46718;BME280;32448;44.960;-0.698;2022-10-31T09:11:31;101069.06;;;16.05;100.00
46718;BME280;32448;44.960;-0.698;2022-10-31T09:14:04;101069.06;;;16.06;100.00
46718;BME280;32448;44.960;-0.698;2022-10-31T09:17:00;101062.03;;;16.08;100.00
46718;BME280;32448;44.960;-0.698;2022-10-31T09:19:43;101040.06;;;15.97;100.00
46718;BME280;32448;44.960;-0.698;2022-10-31T09:22:10;101034.81;;;16.00;100.00
46718;BME280;32448;44.960;-0.698;2022-10-31T09:24:38;101058.50;;;16.20;100.00
46718;BME280;32448;44.960;-0.698;2022-10-31T09:27:07;101050.59;;;16.20;100.00
46718;BME280;32448;44.960;-0.698;2022-10-31T09:29:40;101056.75;;;16.16;100.00
46718;BME280;32448;44.960;-0.698;2022-10-31T09:32:10;101031.28;;;16.09;100.00
46718;BME280;32448;44.960;-0.698;2022-10-31T09:34:44;101053.22;;;16.30;100.00
46718;BME280;32448;44.960;-0.698;2022-10-31T09:37:14;101046.19;;;16.14;100.00
46718;BME280;32448;44.960;-0.698;2022-10-31T09:39:41;101052.34;;;16.34;100.00
46718;BME280;32448;44.960;-0.698;2022-10-31T09:48:17;101034.72;;;16.35;100.00
46718;BME280;32448;44.960;-0.698;2022-10-31T09:51:44;101034.69;;;16.52;100.00
46718;BME280;32448;44.960;-0.698;2022-10-31T09:54:34;101018.88;;;16.44;100.00
46718;BME280;32448;44.960;-0.698;2022-10-31T09:57:03;101015.34;;;16.47;100.00
46718;BME280;32448;44.960;-0.698;2022-10-31T09:59:37;101030.25;;;16.60;100.00
46718;BME280;32448;44.960;-0.698;2022-10-31T10:02:16;101016.22;;;16.62;100.00
46718;BME280;32448;44.960;-0.698;2022-10-31T10:04:58;101003.88;;;16.58;100.00
46718;BME280;32448;44.960;-0.698;2022-10-31T10:16:13;101016.94;;;16.90;100.00
46718;BME280;32448;44.960;-0.698;2022-10-31T10:24:31;101015.09;;;17.12;100.00
46718;BME280;32448;44.960;-0.698;2022-10-31T10:27:39;101014.16;;;17.22;100.00
46718;BME280;32448;44.960;-0.698;2022-10-31T10:30:13;101030.78;;;17.36;100.00
46718;BME280;32448;44.960;-0.698;2022-10-31T10:32:59;101033.41;;;17.39;100.00
46718;BME280;32448;44.960;-0.698;2022-10-31T10:35:33;101027.16;;;17.48;100.00
46718;BME280;32448;44.960;-0.698;2022-10-31T10:40:34;101020.13;;;17.47;100.00
46718;BME280;32448;44.960;-0.698;2022-10-31T10:43:18;101037.66;;;17.62;100.00
46718;BME280;32448;44.960;-0.698;2022-10-31T10:49:19;101020.03;;;17.62;100.00
46718;BME280;32448;44.960;-0.698;2022-10-31T10:57:59;101028.84;;;17.64;100.00
46718;BME280;32448;44.960;-0.698;2022-10-31T11:00:34;101021.78;;;17.66;100.00
46718;BME280;32448;44.960;-0.698;2022-10-31T11:03:02;100995.38;;;17.59;100.00
46718;BME280;32448;44.960;-0.698;2022-10-31T11:05:48;101008.56;;;17.66;100.00
46718;BME280;32448;44.960;-0.698;2022-10-31T11:08:25;100986.53;;;17.61;100.00
46718;BME280;32448;44.960;-0.698;2022-10-31T11:13:49;100975.97;;;17.66;100.00
46718;BME280;32448;44.960;-0.698;2022-10-31T11:21:40;100977.69;;;17.68;100.00
46718;BME280;32448;44.960;-0.698;2022-10-31T11:26:39;100955.69;;;17.66;100.00
46718;BME280;32448;44.960;-0.698;2022-10-31T11:29:24;100957.44;;;17.67;100.00
46718;BME280;32448;44.960;-0.698;2022-10-31T11:31:57;100950.41;;;17.62;100.00
46718;BME280;32448;44.960;-0.698;2022-10-31T11:34:30;100946.91;;;17.66;100.00
46718;BME280;32448;44.960;-0.698;2022-10-31T11:40:03;100935.38;;;17.71;100.00
46718;BME280;32448;44.960;-0.698;2022-10-31T11:42:38;100908.13;;;17.59;100.00
46718;BME280;32448;44.960;-0.698;2022-10-31T11:47:48;100908.94;;;17.70;100.00
46718;BME280;32448;44.960;-0.698;2022-10-31T11:50:40;100905.41;;;17.72;100.00
46718;BME280;32448;44.960;-0.698;2022-10-31T11:53:17;100900.06;;;17.77;100.00
46718;BME280;32448;44.960;-0.698;2022-10-31T11:55:45;100901.78;;;17.81;100.00
46718;BME280;32448;44.960;-0.698;2022-10-31T11:58:24;100893.91;;;17.78;100.00
46718;BME280;32448;44.960;-0.698;2022-10-31T12:00:54;100888.56;;;17.79;100.00
46718;BME280;32448;44.960;-0.698;2022-10-31T12:06:16;100892.91;;;17.87;100.00
46718;BME280;32448;44.960;-0.698;2022-10-31T12:08:45;100883.16;;;17.90;100.00
46718;BME280;32448;44.960;-0.698;2022-10-31T12:16:48;100872.50;;;17.99;100.00
46718;BME280;32448;44.960;-0.698;2022-10-31T12:24:42;100863.59;;;18.06;100.00
46718;BME280;32448;44.960;-0.698;2022-10-31T12:27:22;100855.66;;;18.05;100.00
46718;BME280;32448;44.960;-0.698;2022-10-31T12:56:49;100797.41;;;18.09;100.00
46718;BME280;32448;44.960;-0.698;2022-10-31T12:59:33;100786.88;;;18.05;100.00
46718;BME280;32448;44.960;-0.698;2022-10-31T13:02:27;100785.97;;;18.09;100.00
46718;BME280;32448;44.960;-0.698;2022-10-31T13:04:56;100773.59;;;18.11;100.00
46718;BME280;32448;44.960;-0.698;2022-10-31T13:07:34;100782.41;;;18.11;100.00
46718;BME280;32448;44.960;-0.698;2022-10-31T13:10:13;100785.06;;;18.11;100.00
46718;BME280;32448;44.960;-0.698;2022-10-31T13:12:43;100757.97;;;17.93;100.00
46718;BME280;32448;44.960;-0.698;2022-10-31T13:15:23;100779.94;;;17.98;100.00
46718;BME280;32448;44.960;-0.698;2022-10-31T13:18:04;100797.50;;;18.02;100.00
46718;BME280;32448;44.960;-0.698;2022-10-31T13:20:37;100795.97;;;17.86;100.00
46718;BME280;32448;44.960;-0.698;2022-10-31T13:23:14;100822.28;;;17.95;100.00
46718;BME280;32448;44.960;-0.698;2022-10-31T13:26:11;100835.50;;;17.98;100.00
46718;BME280;32448;44.960;-0.698;2022-10-31T13:28:54;100831.19;;;17.89;100.00
46718;BME280;32448;44.960;-0.698;2022-10-31T13:31:24;100825.91;;;17.88;100.00
46718;BME280;32448;44.960;-0.698;2022-10-31T13:33:58;100831.13;;;17.94;100.00
46718;BME280;32448;44.960;-0.698;2022-10-31T13:36:36;100816.13;;;17.93;100.00
46718;BME280;32448;44.960;-0.698;2022-10-31T13:39:23;100806.56;;;17.82;100.00
46718;BME280;32448;44.960;-0.698;2022-10-31T13:44:26;100796.97;;;17.77;100.00
46718;BME280;32448;44.960;-0.698;2022-10-31T13:46:56;100811.84;;;17.86;100.00
46718;BME280;32448;44.960;-0.698;2022-10-31T13:54:40;100779.38;;;17.73;100.00
46718;BME280;32448;44.960;-0.698;2022-10-31T13:59:51;100781.88;;;17.85;100.00
46718;BME280;32448;44.960;-0.698;2022-10-31T14:02:26;100786.25;;;17.86;100.00
46718;BME280;32448;44.960;-0.698;2022-10-31T14:04:58;100769.59;;;17.79;100.00
46718;BME280;32448;44.960;-0.698;2022-10-31T14:07:26;100781.00;;;17.83;100.00
46718;BME280;32448;44.960;-0.698;2022-10-31T14:09:57;100777.47;;;17.82;100.00
46718;BME280;32448;44.960;-0.698;2022-10-31T14:12:37;100774.00;;;17.79;100.00
46718;BME280;32448;44.960;-0.698;2022-10-31T14:18:03;100770.53;;;17.75;100.00
46718;BME280;32448;44.960;-0.698;2022-10-31T14:20:39;100770.44;;;17.83;100.00
46718;BME280;32448;44.960;-0.698;2022-10-31T14:28:59;100778.47;;;17.75;100.00
46718;BME280;32448;44.960;-0.698;2022-10-31T14:31:41;100776.63;;;17.79;100.00
46718;BME280;32448;44.960;-0.698;2022-10-31T14:34:25;100775.88;;;17.71;100.00
46718;BME280;32448;44.960;-0.698;2022-10-31T14:39:54;100789.91;;;17.76;100.00
46718;BME280;32448;44.960;-0.698;2022-10-31T14:51:22;100791.81;;;17.66;100.00
46718;BME280;32448;44.960;-0.698;2022-10-31T14:53:53;100787.41;;;17.61;100.00
46718;BME280;32448;44.960;-0.698;2022-10-31T14:56:25;100793.56;;;17.61;100.00
46718;BME280;32448;44.960;-0.698;2022-10-31T14:58:55;100785.72;;;17.55;100.00
46718;BME280;32448;44.960;-0.698;2022-10-31T15:01:29;100798.97;;;17.54;100.00
46718;BME280;32448;44.960;-0.698;2022-10-31T15:04:14;100792.78;;;17.53;100.00
46718;BME280;32448;44.960;-0.698;2022-10-31T15:09:40;100806.03;;;17.50;100.00
46718;BME280;32448;44.960;-0.698;2022-10-31T15:14:52;100803.47;;;17.44;100.00
46718;BME280;32448;44.960;-0.698;2022-10-31T15:17:20;100808.78;;;17.42;100.00
46718;BME280;32448;44.960;-0.698;2022-10-31T15:19:48;100808.78;;;17.42;100.00
46718;BME280;32448;44.960;-0.698;2022-10-31T15:22:17;100795.63;;;17.35;100.00
46718;BME280;32448;44.960;-0.698;2022-10-31T15:24:47;100807.13;;;17.32;100.00
46718;BME280;32448;44.960;-0.698;2022-10-31T15:27:17;100810.59;;;17.36;100.00
46718;BME280;32448;44.960;-0.698;2022-10-31T15:29:52;100789.56;;;17.24;100.00
46718;BME280;32448;44.960;-0.698;2022-10-31T15:32:25;100785.25;;;17.14;100.00
46718;BME280;32448;44.960;-0.698;2022-10-31T15:34:54;100815.03;;;17.32;100.00
46718;BME280;32448;44.960;-0.698;2022-10-31T15:37:24;100815.00;;;17.35;100.00